Time;durP1;ratioP1;P1;durP2;ratioP2;P2;SDS_P1;SDS_P2;PMS_P1;PMS_P2;Temp;Humidity;BMP_temperature;BMP_pressure;BME280_temperature;BME280_humidity;BME280_pressure;Samples;Min_cycle;Max_cycle;Signal;HPM_P1;HPM_P2
2021/11/09 00:02:27;;;;;;;33.78;14.35;;;;;;;5.21;100.00;102467.81;2611385;36;20427;-70
2021/11/09 00:04:59;;;;;;;34.53;14.93;;;;;;;5.19;100.00;102467.00;2611718;36;20430;-70
2021/11/09 00:07:35;;;;;;;35.72;16.77;;;;;;;5.28;100.00;102464.91;2610810;36;20030;-70
2021/11/09 00:10:07;;;;;;;38.50;18.00;;;;;;;5.22;100.00;102474.00;2610688;36;20200;-70
2021/11/09 00:12:37;;;;;;;39.75;17.13;;;;;;;5.22;100.00;102477.53;2611002;36;20031;-69
2021/11/09 00:15:09;;;;;;;37.78;16.67;;;;;;;5.16;100.00;102480.47;2611844;36;20050;-70
2021/11/09 00:17:38;;;;;;;39.22;17.23;;;;;;;5.08;100.00;102479.91;2610327;36;20047;-70
2021/11/09 00:20:13;;;;;;;31.13;17.65;;;;;;;5.08;100.00;102471.91;2611380;36;20420;-70
2021/11/09 00:22:42;;;;;;;41.88;19.08;;;;;;;5.00;100.00;102466.84;2611697;36;20109;-72
2021/11/09 00:25:11;;;;;;;34.10;17.83;;;;;;;4.93;100.00;102464.50;2610593;36;20117;-70
2021/11/09 00:27:40;;;;;;;48.85;18.48;;;;;;;4.92;100.00;102460.97;2610447;36;20057;-70
2021/11/09 00:30:10;;;;;;;38.85;17.35;;;;;;;4.96;100.00;102465.25;2609890;36;20038;-70
2021/11/09 00:32:43;;;;;;;45.03;19.25;;;;;;;4.91;100.00;102460.06;2610420;36;20041;-69
2021/11/09 00:35:15;;;;;;;41.78;18.63;;;;;;;4.87;100.00;102461.16;2610542;36;20053;-70
2021/11/09 00:37:45;;;;;;;33.30;18.23;;;;;;;4.83;100.00;102462.19;2610872;36;20030;-70
2021/11/09 00:40:18;;;;;;;47.25;19.77;;;;;;;4.85;100.00;102451.47;2610460;31;20046;-70
2021/11/09 00:42:47;;;;;;;46.83;19.67;;;;;;;4.94;100.00;102466.25;2609445;36;20038;-70
2021/11/09 00:45:16;;;;;;;42.33;18.07;;;;;;;4.90;100.00;102461.03;2611155;36;20930;-71
2021/11/09 00:47:45;;;;;;;;;;;;;;;4.93;100.00;102459.16;2610639;36;20031;-71
2021/11/09 00:50:19;;;;;;;39.38;17.55;;;;;;;4.90;100.00;102457.47;2610660;31;20030;-70
2021/11/09 00:52:47;;;;;;;43.92;19.75;;;;;;;4.86;100.00;102458.53;2609821;36;20060;-69
2021/11/09 00:55:16;;;;;;;45.80;19.05;;;;;;;4.84;100.00;102466.56;2610812;36;20043;-71
2021/11/09 00:57:46;;;;;;;41.15;19.60;;;;;;;4.94;100.00;102460.91;2610560;36;20054;-71
2021/11/09 01:00:18;;;;;;;46.55;18.17;;;;;;;4.88;100.00;102462.88;2611071;31;20035;-70
2021/11/09 01:02:48;;;;;;;47.92;18.73;;;;;;;4.78;100.00;102466.81;2610916;36;20126;-70
2021/11/09 01:05:23;;;;;;;46.20;18.73;;;;;;;4.72;100.00;102470.59;2610122;36;20069;-70
2021/11/09 01:07:55;;;;;;;36.47;17.38;;;;;;;4.77;100.00;102474.88;2610440;36;20031;-70
2021/11/09 01:10:24;;;;;;;37.17;17.30;;;;;;;4.80;100.00;102482.75;2610197;36;20065;-72
2021/11/09 01:12:52;;;;;;;39.72;17.30;;;;;;;4.68;100.00;102481.44;2610258;36;20451;-70
2021/11/09 01:15:21;;;;;;;41.33;18.48;;;;;;;4.65;100.00;102473.56;2610223;36;20072;-71
2021/11/09 01:17:50;;;;;;;33.90;18.52;;;;;;;4.63;100.00;102478.09;2610369;36;20065;-70
2021/11/09 01:20:25;;;;;;;41.70;17.77;;;;;;;4.69;100.00;102469.84;2610720;36;20487;-71
2021/11/09 01:22:55;;;;;;;45.60;18.58;;;;;;;4.67;100.00;102467.25;2611465;36;20124;-70
2021/11/09 01:25:25;;;;;;;35.05;15.70;;;;;;;4.61;100.00;102482.59;2609955;36;20034;-69
2021/11/09 01:27:53;;;;;;;36.78;17.27;;;;;;;4.65;100.00;102478.88;2609567;36;20097;-70
2021/11/09 01:30:22;;;;;;;44.35;17.02;;;;;;;4.61;100.00;102477.25;2609716;36;20126;-69
2021/11/09 01:32:51;;;;;;;34.53;17.95;;;;;;;4.56;100.00;102473.00;2610748;36;20465;-70
2021/11/09 01:35:23;;;;;;;;;;;;;;;4.57;100.00;102472.03;2610942;36;20726;-70
2021/11/09 01:37:52;;;;;;;40.03;15.65;;;;;;;4.44;100.00;102473.41;2610981;36;20118;-70
2021/11/09 01:40:23;;;;;;;44.10;18.48;;;;;;;4.45;100.00;102475.16;2609644;36;20031;-70
2021/11/09 01:42:52;;;;;;;37.75;17.58;;;;;;;4.53;100.00;102473.09;2610350;36;20126;-70
2021/11/09 01:45:22;;;;;;;48.88;18.08;;;;;;;4.52;100.00;102474.03;2610501;36;20173;-71
2021/11/09 01:47:51;;;;;;;38.53;17.40;;;;;;;4.48;100.00;102469.72;2609226;36;20080;-71
2021/11/09 01:50:26;;;;;;;34.70;16.90;;;;;;;4.40;100.00;102471.78;2609974;36;20145;-71
2021/11/09 01:52:55;;;;;;;40.75;16.90;;;;;;;4.39;100.00;102470.94;2610054;31;20042;-70
2021/11/09 01:55:26;;;;;;;48.03;17.52;;;;;;;4.42;100.00;102469.06;2608795;36;20030;-71
2021/11/09 01:57:55;;;;;;;38.47;16.58;;;;;;;4.39;100.00;102473.59;2610375;36;20045;-70
2021/11/09 02:00:26;;;;;;;44.13;17.52;;;;;;;4.39;100.00;102475.41;2610957;36;20547;-70
2021/11/09 02:02:56;;;;;;;46.78;18.52;;;;;;;4.39;100.00;102470.06;2610110;36;20061;-71
2021/11/09 02:05:28;;;;;;;45.58;18.40;;;;;;;4.41;100.00;102472.69;2610995;36;20053;-70
2021/11/09 02:07:59;;;;;;;48.97;18.75;;;;;;;4.42;100.00;102471.72;2609840;36;20030;-71
2021/11/09 02:10:30;;;;;;;41.55;19.08;;;;;;;4.47;100.00;102467.13;2609643;36;20169;-70
2021/11/09 02:12:59;;;;;;;44.85;19.05;;;;;;;4.51;100.00;102466.09;2609705;36;20501;-69
2021/11/09 02:15:28;;;;;;;41.40;20.27;;;;;;;4.52;100.00;102455.34;2609615;36;20030;-70
2021/11/09 02:17:56;;;;;;;43.42;20.63;;;;;;;4.48;100.00;102448.41;2609881;36;20555;-70
2021/11/09 02:20:30;;;;;;;45.70;19.95;;;;;;;4.50;100.00;102457.19;2610384;36;20042;-70
2021/11/09 02:23:02;;;;;;;46.13;18.55;;;;;;;4.48;100.00;102453.72;2612009;36;20097;-70
2021/11/09 02:25:32;;;;;;;47.38;21.67;;;;;;;4.49;100.00;102442.13;2611586;36;20030;-69
2021/11/09 02:28:02;;;;;;;47.70;20.90;;;;;;;4.52;100.00;102441.13;2611673;36;20146;-70
2021/11/09 02:30:32;;;;;;;50.05;21.00;;;;;;;4.56;100.00;102446.31;2611682;31;20932;-70
2021/11/09 02:33:02;;;;;;;56.28;20.23;;;;;;;4.54;100.00;102445.50;2611193;36;20922;-69
2021/11/09 02:35:30;;;;;;;49.90;21.10;;;;;;;4.56;100.00;102433.00;2612165;31;20472;-70
2021/11/09 02:38:02;;;;;;;44.30;19.63;;;;;;;4.57;100.00;102448.03;2611501;36;20080;-70
2021/11/09 02:40:31;;;;;;;45.80;19.23;;;;;;;4.56;100.00;102449.00;2611785;36;20401;-70
2021/11/09 02:43:01;;;;;;;46.87;20.00;;;;;;;4.57;100.00;102448.03;2612055;36;20133;-70
2021/11/09 02:45:37;;;;;;;52.85;20.35;;;;;;;4.57;100.00;102447.19;2611429;36;20435;-69
2021/11/09 02:48:10;;;;;;;49.60;21.17;;;;;;;4.53;100.00;102451.78;2610912;36;20054;-70
2021/11/09 02:50:42;;;;;;;54.17;21.60;;;;;;;4.48;100.00;102448.41;2611911;31;20034;-70
2021/11/09 02:53:17;;;;;;;51.08;20.70;;;;;;;4.52;100.00;102442.03;2610706;36;20034;-69
2021/11/09 02:55:48;;;;;;;63.60;21.58;;;;;;;4.50;100.00;102441.19;2611100;36;20034;-70
2021/11/09 02:58:27;;;;;;;47.67;20.13;;;;;;;4.54;100.00;102447.28;2610632;36;20058;-71
2021/11/09 03:01:05;;;;;;;59.42;20.85;;;;;;;4.57;100.00;102442.69;2610646;36;20129;-70
2021/11/09 03:03:37;;;;;;;52.45;20.67;;;;;;;4.54;100.00;102448.16;2610732;36;20578;-70
2021/11/09 03:06:18;;;;;;;46.65;19.55;;;;;;;4.52;100.00;102443.78;2610541;36;20393;-70
2021/11/09 03:08:54;;;;;;;45.75;19.25;;;;;;;4.53;100.00;102438.44;2610977;36;20435;-70
2021/11/09 03:11:22;;;;;;;45.58;18.95;;;;;;;4.45;100.00;102439.66;2610901;36;20031;-71
2021/11/09 03:13:51;;;;;;;45.58;19.20;;;;;;;4.49;100.00;102450.16;2611063;36;20076;-69
2021/11/09 03:16:21;;;;;;;58.67;19.50;;;;;;;4.41;100.00;102449.53;2610664;36;20169;-70
2021/11/09 03:18:53;;;;;;;47.33;19.63;;;;;;;4.42;100.00;102443.28;2610697;31;20046;-69
2021/11/09 03:40:30;;;;;;;45.03;19.38;;;;;;;4.32;100.00;102447.22;2611022;36;20039;-69
2021/11/09 03:45:40;;;;;;;55.03;18.55;;;;;;;4.33;100.00;102456.97;2611301;36;20057;-70
2021/11/09 03:48:12;;;;;;;52.42;19.25;;;;;;;4.30;100.00;102459.72;2611256;31;20601;-69
2021/11/09 03:50:42;;;;;;;45.10;19.40;;;;;;;4.27;100.00;102457.16;2611230;36;20069;-71
2021/11/09 03:53:16;;;;;;;50.22;19.08;;;;;;;4.29;100.00;102468.66;2611654;36;20030;-71
2021/11/09 03:56:09;;;;;;;42.25;19.23;;;;;;;4.19;100.00;102466.31;2611133;36;20081;-71
2021/11/09 03:58:40;;;;;;;56.35;19.90;;;;;;;4.19;100.00;102470.78;2611531;36;20034;-69
2021/11/09 04:01:11;;;;;;;48.92;19.98;;;;;;;4.29;100.00;102477.53;2611447;36;20034;-69
2021/11/09 04:03:56;;;;;;;46.25;19.77;;;;;;;4.27;100.00;102479.38;2612799;36;20034;-70
2021/11/09 04:09:00;;;;;;;43.33;18.90;;;;;;;4.11;100.00;102479.06;2610893;36;20038;-70
2021/11/09 04:11:36;;;;;;;49.58;20.90;;;;;;;4.17;100.00;102475.31;2610698;36;20303;-70
2021/11/09 04:14:12;;;;;;;53.90;21.55;;;;;;;4.13;100.00;102473.69;2609091;36;20553;-71
2021/11/09 04:16:47;;;;;;;52.90;21.25;;;;;;;4.13;100.00;102468.34;2610785;36;20045;-69
2021/11/09 04:19:22;;;;;;;44.13;19.98;;;;;;;4.13;100.00;102473.69;2609871;36;20073;-69
2021/11/09 04:22:37;;;;;;;51.20;21.13;;;;;;;4.10;100.00;102471.97;2610162;36;20550;-69
2021/11/09 04:27:51;;;;;;;57.78;21.65;;;;;;;4.16;100.00;102468.22;2610253;36;20563;-70
2021/11/09 04:30:40;;;;;;;51.83;19.95;;;;;;;4.21;100.00;102466.25;2611116;36;20434;-70
2021/11/09 04:33:36;;;;;;;51.33;20.17;;;;;;;4.35;100.00;102471.09;2611068;36;20116;-70
2021/11/09 04:52:43;;;;;;;54.55;22.30;;;;;;;4.23;100.00;102472.41;2611131;36;20034;-69
2021/11/09 05:09:00;;;;;;;41.85;18.38;;;;;;;4.25;100.00;102477.69;2609548;36;20567;-70
2021/11/09 05:11:28;;;;;;;43.75;18.83;;;;;;;4.25;100.00;102472.38;2609976;36;20035;-71
2021/11/09 05:13:57;;;;;;;48.83;19.45;;;;;;;4.34;100.00;102475.56;2610402;36;20142;-70
2021/11/09 05:16:27;;;;;;;49.05;18.42;;;;;;;4.24;100.00;102474.16;2610579;36;20165;-69
2021/11/09 05:18:56;;;;;;;44.88;19.73;;;;;;;4.27;100.00;102476.72;2609576;31;20035;-70
2021/11/09 05:21:25;;;;;;;39.55;17.88;;;;;;;4.31;100.00;102477.47;2610024;36;20061;-70
2021/11/09 05:23:53;;;;;;;41.67;18.27;;;;;;;4.33;100.00;102478.31;2609632;36;20066;-70
2021/11/09 05:26:21;;;;;;;48.38;18.95;;;;;;;4.29;100.00;102479.34;2605379;36;20061;-70
2021/11/09 05:28:50;;;;;;;43.50;18.33;;;;;;;4.27;100.00;102481.16;2604440;36;20562;-70
2021/11/09 05:31:19;;;;;;;44.92;18.73;;;;;;;4.31;100.00;102482.78;2603541;31;20209;-70
2021/11/09 05:33:54;;;;;;;47.55;18.67;;;;;;;4.32;100.00;102484.53;2603064;36;20042;-70
2021/11/09 05:36:22;;;;;;;45.17;18.33;;;;;;;4.29;100.00;102487.31;2600761;31;20039;-69
2021/11/09 05:38:54;;;;;;;44.53;18.88;;;;;;;4.31;100.00;102482.78;2599965;36;20061;-69
2021/11/09 05:46:25;;;;;;;34.83;18.25;;;;;;;4.54;100.00;102497.97;2607752;36;20612;-69
2021/11/09 05:48:55;;;;;;;47.65;19.75;;;;;;;4.37;100.00;102495.91;2601002;36;20855;-70
2021/11/09 05:51:24;;;;;;;45.78;20.85;;;;;;;4.33;100.00;102502.28;2600151;36;20619;-70
2021/11/09 05:53:52;;;;;;;46.33;18.95;;;;;;;4.31;100.00;102506.78;2604043;36;20565;-69
2021/11/09 05:56:20;;;;;;;43.10;19.08;;;;;;;4.33;100.00;102504.97;2599928;31;20205;-70
2021/11/09 05:58:48;;;;;;;45.67;18.75;;;;;;;4.25;100.00;102504.34;2598914;36;20082;-70
2021/11/09 06:01:17;;;;;;;41.65;18.40;;;;;;;4.25;100.00;102510.53;2601779;31;20117;-71
2021/11/09 06:03:45;;;;;;;53.53;20.95;;;;;;;4.24;100.00;102505.25;2600604;36;20046;-70
2021/11/09 06:06:16;;;;;;;44.00;19.60;;;;;;;4.28;100.00;102509.56;2599913;36;20072;-69
2021/11/09 06:08:46;;;;;;;41.67;20.08;;;;;;;4.27;100.00;102510.47;2600700;36;20444;-69
2021/11/09 06:11:14;;;;;;;50.85;22.00;;;;;;;4.26;100.00;102512.28;2600709;36;20126;-70
2021/11/09 06:13:43;;;;;;;52.78;20.17;;;;;;;4.32;100.00;102505.88;2599089;36;20077;-70
2021/11/09 06:16:11;;;;;;;50.05;22.63;;;;;;;4.35;100.00;102513.75;2598977;36;20480;-70
2021/11/09 06:18:40;;;;;;;49.90;21.23;;;;;;;4.36;100.00;102516.38;2601525;36;20126;-69
2021/11/09 06:21:08;;;;;;;49.38;21.77;;;;;;;4.32;100.00;102513.88;2602205;36;20039;-70
2021/11/09 06:23:39;;;;;;;50.08;22.50;;;;;;;4.29;100.00;102519.31;2600028;31;22068;-69
2021/11/09 06:26:07;;;;;;;53.67;21.88;;;;;;;4.29;100.00;102520.16;2598510;36;20122;-70
2021/11/09 06:28:37;;;;;;;52.03;21.55;;;;;;;4.28;100.00;102514.91;2602314;36;20138;-69
2021/11/09 06:31:05;;;;;;;49.83;22.25;;;;;;;4.37;100.00;102525.22;2599692;36;20034;-69
2021/11/09 06:33:33;;;;;;;53.30;22.75;;;;;;;4.41;100.00;102521.53;2602866;36;20666;-70
2021/11/09 06:36:01;;;;;;;55.50;22.08;;;;;;;4.43;100.00;102530.34;2600899;36;20122;-70
2021/11/09 06:38:30;;;;;;;49.95;22.90;;;;;;;4.41;100.00;102526.84;2601096;36;20599;-69
2021/11/09 06:41:01;;;;;;;50.35;23.33;;;;;;;4.44;100.00;102526.75;2600088;36;20046;-69
2021/11/09 06:43:29;;;;;;;47.83;22.05;;;;;;;4.50;100.00;102531.84;2603134;36;20054;-69
2021/11/09 06:51:17;;;;;;;41.60;22.92;;;;;;;4.71;100.00;102543.56;2605001;36;20031;-69
2021/11/09 06:53:46;;;;;;;55.53;24.17;;;;;;;4.73;100.00;102543.50;2602027;36;20664;-69
2021/11/09 06:56:17;;;;;;;53.33;21.85;;;;;;;4.72;100.00;102544.41;2596105;36;20057;-69
2021/11/09 06:58:54;;;;;;;56.40;23.13;;;;;;;4.68;100.00;102551.66;2594213;36;20595;-70
2021/11/09 07:01:23;;;;;;;57.63;23.15;;;;;;;4.71;100.00;102545.31;2598081;36;20289;-70
2021/11/09 07:03:51;;;;;;;44.50;22.20;;;;;;;4.73;100.00;102551.50;2602482;36;20038;-70
2021/11/09 07:08:58;;;;;;;45.17;21.15;;;;;;;4.63;100.00;102550.09;2604037;31;20497;-70
2021/11/09 07:14:35;;;;;;;50.03;22.23;;;;;;;4.83;100.00;102560.00;2599317;36;20034;-68
2021/11/09 07:17:31;;;;;;;50.13;23.10;;;;;;;4.73;100.00;102555.03;2599244;36;20038;-70
2021/11/09 07:20:00;;;;;;;44.55;19.63;;;;;;;4.80;100.00;102555.69;2598149;36;20570;-72
2021/11/09 07:25:03;;;;;;;36.85;18.20;;;;;;;4.88;100.00;102560.72;2613196;54;20084;-70
2021/11/09 07:27:46;;;;;;;40.38;19.65;;;;;;;5.03;100.00;102561.94;2607705;31;20037;-71
2021/11/09 07:30:15;;;;;;;42.13;21.05;;;;;;;5.06;100.00;102567.16;2611200;31;20041;-70
2021/11/09 07:32:51;;;;;;;43.75;19.35;;;;;;;5.05;100.00;102568.97;2606693;36;20042;-71
2021/11/09 07:38:17;;;;;;;36.17;18.88;;;;;;;5.08;100.00;102571.50;2609219;36;20070;-69
2021/11/09 07:40:48;;;;;;;43.08;18.52;;;;;;;5.14;100.00;102574.88;2609083;36;20034;-69
2021/11/09 07:43:20;;;;;;;42.45;21.02;;;;;;;5.21;100.00;102592.38;2612125;36;20126;-69
2021/11/09 07:45:48;;;;;;;45.95;19.65;;;;;;;5.26;100.00;102580.59;2610999;36;20042;-69
2021/11/09 07:48:19;;;;;;;43.92;19.15;;;;;;;5.25;100.00;102578.84;2611440;36;20118;-70
2021/11/09 07:50:48;;;;;;;42.55;16.98;;;;;;;5.30;100.00;102581.38;2613002;36;20061;-70
2021/11/09 07:53:18;;;;;;;41.42;17.85;;;;;;;5.35;100.00;102573.19;2613650;36;20471;-70
2021/11/09 07:55:52;;;;;;;43.42;18.88;;;;;;;5.36;100.00;102574.91;2613505;34;20068;-69
2021/11/09 07:58:30;;;;;;;40.15;17.83;;;;;;;5.38;100.00;102581.94;2613021;36;20030;-71
2021/11/09 08:01:07;;;;;;;35.43;16.97;;;;;;;5.37;100.00;102582.00;2612461;31;20034;-69
2021/11/09 08:03:41;;;;;;;43.40;19.98;;;;;;;5.37;100.00;102587.34;2612223;36;20052;-70
2021/11/09 08:06:16;;;;;;;43.63;18.98;;;;;;;5.47;100.00;102594.06;2611846;36;20045;-70
2021/11/09 08:08:54;;;;;;;44.28;18.35;;;;;;;5.45;100.00;102585.25;2612171;36;20065;-69
2021/11/09 08:11:24;;;;;;;45.95;18.45;;;;;;;5.49;100.00;102594.88;2612233;31;20031;-71
2021/11/09 08:13:55;;;;;;;37.53;17.80;;;;;;;5.52;100.00;102584.09;2612147;36;20041;-70
2021/11/09 08:16:24;;;;;;;40.63;17.92;;;;;;;5.60;100.00;102583.75;2612088;31;22847;-70
2021/11/09 08:18:52;;;;;;;35.60;18.17;;;;;;;5.61;100.00;102594.38;2611893;36;20065;-70
2021/11/09 08:21:20;;;;;;;39.10;18.65;;;;;;;5.69;100.00;102596.75;2611749;36;20053;-70
2021/11/09 08:23:50;;;;;;;38.05;19.10;;;;;;;5.78;100.00;102593.69;2611060;36;20038;-70
2021/11/09 08:26:19;;;;;;;34.42;16.20;;;;;;;5.81;100.00;102592.72;2611712;36;20042;-70
2021/11/09 08:28:47;;;;;;;40.50;18.55;;;;;;;5.84;100.00;102592.56;2611960;36;20065;-68
2021/11/09 08:31:21;;;;;;;38.47;18.60;;;;;;;5.85;100.00;102588.97;2610446;36;20067;-69
2021/11/09 08:33:50;;;;;;;43.03;19.25;;;;;;;5.92;100.00;102584.28;2610696;36;20034;-69
2021/11/09 08:36:22;;;;;;;41.20;17.60;;;;;;;5.91;100.00;102586.06;2611505;31;20031;-70
2021/11/09 08:38:51;;;;;;;38.50;18.13;;;;;;;6.03;100.00;102581.19;2611185;36;20141;-69
2021/11/09 08:41:26;;;;;;;40.08;15.80;;;;;;;6.08;100.00;102593.41;2610770;36;20054;-69
2021/11/09 08:44:01;;;;;;;39.17;18.40;;;;;;;6.19;100.00;102598.31;2610669;36;20133;-68
2021/11/09 08:46:36;;;;;;;39.47;16.38;;;;;;;6.34;100.00;102591.44;2610886;36;20042;-69
2021/11/09 10:13:43;;;;;;;34.97;12.18;;;;;;;8.72;100.00;102580.97;2612218;54;19953;-68
2021/11/09 10:16:20;;;;;;;28.63;11.32;;;;;;;8.84;100.00;102576.78;2612439;36;20619;-71
2021/11/09 10:19:00;;;;;;;31.50;12.38;;;;;;;8.98;100.00;102584.09;2612681;36;20571;-69
2021/11/09 10:21:36;;;;;;;29.42;11.45;;;;;;;8.86;100.00;102576.69;2612672;36;20046;-70
2021/11/09 10:24:05;;;;;;;25.58;11.30;;;;;;;8.97;100.00;102578.81;2612654;36;20038;-71
2021/11/09 10:26:37;;;;;;;35.28;11.90;;;;;;;9.16;100.00;102578.66;2612650;31;20067;-71
2021/11/09 10:29:12;;;;;;;26.92;12.07;;;;;;;9.12;100.00;102578.81;2612629;36;20161;-71
2021/11/09 10:31:43;;;;;;;32.13;11.05;;;;;;;9.19;100.00;102578.50;2612400;36;20722;-71
2021/11/09 10:34:29;;;;;;;33.63;11.13;;;;;;;9.42;100.00;102570.03;2612650;36;20031;-71
2021/11/09 10:37:16;;;;;;;24.58;10.23;;;;;;;9.26;100.00;102569.13;2612601;36;20031;-70
2021/11/09 10:39:46;;;;;;;27.92;12.43;;;;;;;9.22;100.00;102573.81;2612576;36;20117;-69
2021/11/09 10:42:17;;;;;;;23.48;10.50;;;;;;;9.40;100.00;102565.69;2631059;36;20121;-71
2021/11/09 10:44:57;;;;;;;24.90;11.45;;;;;;;9.51;100.00;102567.75;2611325;36;20068;-71
2021/11/09 10:47:28;;;;;;;28.13;11.18;;;;;;;9.53;100.00;102565.84;2612518;36;20547;-72
2021/11/09 10:50:08;;;;;;;27.35;10.73;;;;;;;9.49;100.00;102569.66;2612195;36;20645;-71
2021/11/09 10:52:42;;;;;;;19.23;11.10;;;;;;;9.48;100.00;102571.47;2612017;36;20054;-70
2021/11/09 10:55:16;;;;;;;23.90;11.13;;;;;;;9.49;100.00;102581.28;2612320;36;20582;-69
2021/11/09 10:57:55;;;;;;;28.30;11.50;;;;;;;9.67;100.00;102576.66;2612588;36;20468;-71
2021/11/09 11:03:50;;;;;;;29.67;11.93;;;;;;;9.65;100.00;102570.53;2608831;36;20038;-72
2021/11/09 11:06:24;;;;;;;23.92;10.98;;;;;;;9.81;100.00;102571.38;2611725;36;20065;-70
2021/11/09 11:08:54;;;;;;;27.92;10.57;;;;;;;9.97;100.00;102575.88;2613005;31;20064;-70
2021/11/09 11:11:28;;;;;;;24.83;11.27;;;;;;;10.04;100.00;102571.88;2613905;31;20117;-71
2021/11/09 11:16:31;;;;;;;24.08;11.60;;;;;;;9.88;100.00;102566.50;2611876;36;20408;-71
2021/11/09 11:22:40;;;;;;;26.48;10.88;;;;;;;9.96;100.00;102560.69;2611139;36;20073;-71
2021/11/09 11:25:11;;;;;;;26.40;11.10;;;;;;;9.91;100.00;102565.44;2610567;36;20129;-72
2021/11/09 11:31:21;;;;;;;25.27;11.57;;;;;;;9.97;100.00;102570.50;2608392;47;20038;-72
2021/11/09 18:20:25;;;;;;;24.30;9.75;;;;;;;9.75;100.00;102509.88;2609304;36;20415;-68
2021/11/09 18:39:34;;;;;;;23.60;10.32;;;;;;;9.68;100.00;102524.63;2608769;47;20014;-69
2021/11/09 18:49:35;;;;;;;30.30;11.40;;;;;;;9.64;100.00;102549.97;2625798;36;20030;-71
2021/11/09 18:52:10;;;;;;;22.05;10.45;;;;;;;9.62;100.00;102543.81;2626796;36;20566;-70
2021/11/09 18:57:46;;;;;;;19.58;9.55;;;;;;;9.58;100.00;102526.97;2610709;36;20038;-70
2021/11/09 19:06:37;;;;;;;25.20;10.85;;;;;;;9.57;100.00;102536.03;2625361;36;20026;-72
2021/11/09 19:09:44;;;;;;;29.00;10.38;;;;;;;9.56;100.00;102530.75;2610827;31;20606;-72
2021/11/09 19:14:55;;;;;;;26.70;12.38;;;;;;;9.58;100.00;102535.03;2607712;36;20118;-69
2021/11/09 19:18:07;;;;;;;27.08;11.50;;;;;;;9.56;100.00;102525.34;2608758;36;20041;-69
2021/11/09 19:21:00;;;;;;;28.08;12.77;;;;;;;9.56;100.00;102522.66;2609458;36;20031;-74
2021/11/09 20:04:55;;;;;;;26.90;10.57;;;;;;;9.36;100.00;102511.22;2625617;36;20057;-70
2021/11/09 20:26:19;;;;;;;30.55;12.35;;;;;;;9.33;100.00;102499.78;2608550;47;20038;-71
2021/11/09 20:31:20;;;;;;;26.90;11.10;;;;;;;9.38;100.00;102487.84;2610119;39;20435;-71
2021/11/09 20:33:51;;;;;;;31.75;11.00;;;;;;;9.32;100.00;102482.81;2610935;36;20066;-72
2021/11/09 20:36:48;;;;;;;32.13;12.93;;;;;;;9.31;100.00;102473.00;2609855;36;20177;-70
2021/11/09 20:40:07;;;;;;;32.67;11.93;;;;;;;9.29;100.00;102466.88;2610463;36;20035;-70
2021/11/09 20:43:18;;;;;;;26.10;11.77;;;;;;;9.23;100.00;102464.50;2609945;36;20436;-73
2021/11/09 20:48:53;;;;;;;24.70;11.98;;;;;;;9.19;100.00;102457.59;2626767;36;20037;-71
2021/11/09 20:51:48;;;;;;;28.33;10.93;;;;;;;9.21;100.00;102469.13;2610325;36;20035;-70
2021/11/09 20:56:59;;;;;;;27.08;10.75;;;;;;;9.17;100.00;102464.88;2609823;36;20053;-71
2021/11/09 20:59:59;;;;;;;24.17;11.00;;;;;;;9.16;100.00;102455.06;2610784;36;20184;-70
2021/11/09 21:02:52;;;;;;;32.22;11.15;;;;;;;9.10;100.00;102457.16;2609642;36;20786;-71
2021/11/09 21:11:41;;;;;;;33.25;15.35;;;;;;;9.22;100.00;102466.34;2607742;36;20029;-71
2021/11/09 21:20:32;;;;;;;38.00;15.43;;;;;;;9.16;100.00;102452.38;2609903;36;20557;-71
2021/11/09 21:23:48;;;;;;;;;;;;;;;9.09;100.00;102447.38;2610032;36;20064;-72
2021/11/09 21:26:27;;;;;;;25.23;11.35;;;;;;;9.10;100.00;102441.06;2628679;36;20355;-70
2021/11/09 21:29:01;;;;;;;29.30;11.57;;;;;;;9.08;100.00;102436.72;2626161;31;20031;-73
2021/11/09 21:31:36;;;;;;;29.20;11.68;;;;;;;9.05;100.00;102443.13;2609578;36;20586;-71
2021/11/09 21:36:54;;;;;;;29.73;10.82;;;;;;;9.01;100.00;102441.59;2606835;36;20030;-72
2021/11/09 21:39:23;;;;;;;27.27;12.02;;;;;;;9.00;100.00;102442.53;2608252;36;20038;-70
2021/11/09 21:41:54;;;;;;;23.77;10.63;;;;;;;9.02;100.00;102447.81;2606540;36;20570;-71
2021/11/09 21:44:27;;;;;;;28.70;11.35;;;;;;;9.03;100.00;102446.88;2596500;36;20578;-71
2021/11/09 21:46:59;;;;;;;27.48;11.77;;;;;;;9.02;100.00;102445.97;2594767;36;20561;-71
2021/11/09 21:49:29;;;;;;;27.50;11.93;;;;;;;9.02;100.00;102454.03;2598208;36;20070;-72
2021/11/09 21:51:59;;;;;;;26.58;11.73;;;;;;;9.05;100.00;102443.13;2600070;36;20169;-71
2021/11/09 21:54:30;;;;;;;25.77;11.57;;;;;;;9.04;100.00;102446.78;2601059;36;20084;-71
2021/11/09 21:57:01;;;;;;;28.40;11.52;;;;;;;9.02;100.00;102445.97;2608079;36;20036;-71
2021/11/09 21:59:39;;;;;;;25.52;11.70;;;;;;;8.98;100.00;102439.06;2604240;36;20053;-72
2021/11/09 22:02:08;;;;;;;27.80;11.57;;;;;;;9.00;100.00;102434.47;2607597;36;20524;-70
2021/11/09 22:04:37;;;;;;;24.85;12.38;;;;;;;9.01;100.00;102441.59;2608920;31;21392;-71
2021/11/09 22:07:08;;;;;;;;;;;;;;;9.05;100.00;102443.13;2608880;36;20035;-70
2021/11/09 22:09:36;;;;;;;28.33;12.10;;;;;;;9.06;100.00;102447.53;2604932;36;20276;-71
2021/11/09 22:12:05;;;;;;;25.60;12.10;;;;;;;9.10;100.00;102443.75;2606315;31;20546;-71
2021/11/09 22:14:33;;;;;;;31.92;12.18;;;;;;;9.10;100.00;102441.06;2622717;31;20561;-72
2021/11/09 22:17:03;;;;;;;27.27;11.52;;;;;;;9.11;100.00;102437.41;2606640;36;20218;-71
2021/11/09 22:19:34;;;;;;;31.92;12.98;;;;;;;9.12;100.00;102444.50;2605706;36;20030;-72
2021/11/09 22:22:02;;;;;;;25.23;10.82;;;;;;;9.08;100.00;102448.34;2602871;36;20130;-73
2021/11/09 22:24:36;;;;;;;35.80;12.30;;;;;;;9.12;100.00;102455.25;2609356;36;20530;-72
2021/11/09 22:27:05;;;;;;;31.10;11.80;;;;;;;9.15;100.00;102453.34;2607313;36;20038;-71
2021/11/09 22:29:38;;;;;;;24.17;12.25;;;;;;;9.12;100.00;102457.06;2608005;31;20117;-72
2021/11/09 22:32:07;;;;;;;24.90;11.15;;;;;;;9.07;100.00;102454.66;2606556;36;20057;-71
2021/11/09 22:34:38;;;;;;;29.80;12.50;;;;;;;9.11;100.00;102458.91;2606858;36;20030;-71
2021/11/09 22:37:06;;;;;;;26.52;12.27;;;;;;;9.08;100.00;102458.19;2605961;36;20153;-72
2021/11/09 22:39:38;;;;;;;31.97;12.37;;;;;;;9.07;100.00;102451.13;2606971;36;20031;-73
2021/11/09 22:42:15;;;;;;;28.92;11.40;;;;;;;9.03;100.00;102461.16;2604584;36;20042;-71
2021/11/09 22:45:46;;;;;;;31.92;12.30;;;;;;;9.02;100.00;102467.47;2598083;36;20102;-70
2021/11/09 22:49:10;;;;;;;29.02;11.82;;;;;;;9.03;100.00;102461.16;2623617;36;20065;-71
2021/11/09 23:15:56;;;;;;;23.83;10.32;;;;;;;9.05;100.00;102455.69;2617454;36;20492;-72
2021/11/09 23:24:07;;;;;;;21.83;9.50;;;;;;;8.97;100.00;102458.81;2599655;36;20037;-71
2021/11/09 23:34:52;;;;;;;23.73;10.85;;;;;;;8.88;100.00;102448.59;2611725;36;20045;-71
2021/11/09 23:53:48;;;;;;;26.02;9.80;;;;;;;8.83;100.00;102464.94;2613473;36;20031;-71
2021/11/09 23:56:49;;;;;;;23.05;10.65;;;;;;;8.83;100.00;102472.13;2629628;36;20031;-71
